Share

Curtis, NE

Imperial Municipal (KIML) Elev 3274 ft | 40.51 °N, 101.62 °W | Change Station

Current weather conditions updated 25 minutes ago

Clear
Clear
70 °F
Feels Like 70 °F
N
14
Wind Variable Wind from NE
Sunrise 6:57 AM
Sunset 8:25 PM
Moon Waning Gibbous

Tomorrow is forecast to be nearly the same temperature as today.

Pressure 29.95 in
Visibility 10.0 miles
Clouds Clear
Dew Point 40 °F
Humidity 33%
Rainfall 0.00 in
Snow Depth Not available.
UV 3 out of 16
Pollen 10.80 out of 12
Air Quality Not available.
Flu Activity Sporadic
METAR KIML 192253Z AUTO 05012KT 10SM CLR 21/04 A2999 RMK AO2 SLP141 T02110044 $

More Conditions Fewer Conditions

Pressure 29.95 in
Visibility 10.0 miles
Clouds Clear
Dew Point 40 °F
Humidity 33%
Rainfall 0.00 in
Snow Depth Not available.
UV 3 out of 16
Pollen 10.80 out of 12
Air Quality Not available.
Flu Activity Sporadic
METAR KIML 192253Z AUTO 05012KT 10SM CLR 21/04 A2999 RMK AO2 SLP141 T02110044 $

More Conditions Fewer Conditions

10-Day Weather Forecast

Almanac

Astronomy

Apr. 19, 2014 Rise Set
Actual Time 6:57 AM CDT 8:25 PM CDT
Civil Twilight 6:28 AM CDT 8:54 PM CDT
Nautical Twilight 5:54 AM CDT 9:28 PM CDT
Astronomical Twilight 5:17 AM CDT 10:05 PM CDT
Moon 12:12 AM CDT 10:16 AM CDT
Length of Visible Light 14h 25m
Length of Day
13h 28m
Tomorrow will be 2m 31s longer.
Waning Gibbous, 76% of the Moon is Illuminated
Today
Waning Gibbous
Apr 22
Last Quarter
Apr 29
New
May 6
First Quarter
May 14
Full

Today's Extremes

State Highs State Lows

Community

  • Happy Easter!
    Happy Easter!
  • poppy bloom near Mazar-e-Sharif
    poppy bloom near Mazar-e-Sharif
  • Happy Easter WU friends!!!!
    Happy Easter WU friends!!!!
  • Skirting the Horizon
    Skirting the Horizon
  • Piriapolis
    Piriapolis

WunderPhotos

Upload Photos

1,702,957 photos uploaded!

WunderBlogs® & News

Nearby

Snow Depth

Station Depth Elevation
No new snow has been reported.

Coastal Water Temperatures

Place Temperature
No Stations Reporting

Earthquake Activity

City Distance Mag. Time & Date
No recent earthquake activity has been reported nearby.
Minimum magnitude displayed is 2.5.

Nearby Weather Stations

There are no personal weather stations in this area.

What do you think?

We're not finished. Please let us know what you like, what you don't like, and what you are still missing.